createdAt,value
2019-05-25T00:01:27.003Z,14.20
2019-05-25T00:03:55.544Z,14.10
2019-05-25T00:06:24.088Z,14.10
2019-05-25T00:08:52.630Z,14.00
2019-05-25T00:11:21.109Z,13.90
2019-05-25T00:13:49.576Z,14.00
2019-05-25T00:16:18.065Z,14.00
2019-05-25T00:18:46.612Z,13.90
2019-05-25T00:21:15.254Z,13.80
2019-05-25T00:23:43.725Z,13.90
2019-05-25T00:26:12.291Z,13.70
2019-05-25T00:28:40.792Z,13.80
2019-05-25T00:31:09.291Z,13.90
2019-05-25T00:33:37.782Z,13.90
2019-05-25T00:36:06.332Z,13.80
2019-05-25T00:38:34.838Z,13.80
2019-05-25T00:41:03.321Z,13.70
2019-05-25T00:43:31.815Z,13.70
2019-05-25T00:46:00.456Z,13.60
2019-05-25T00:48:29.012Z,13.40
2019-05-25T00:50:57.518Z,13.50
2019-05-25T00:53:26.006Z,13.50
2019-05-25T00:55:54.479Z,13.60
2019-05-25T00:58:22.993Z,13.50
2019-05-25T01:00:51.545Z,13.40
2019-05-25T01:03:20.131Z,13.40
2019-05-25T01:05:48.611Z,13.30
2019-05-25T01:08:17.447Z,13.40
2019-05-25T01:10:45.914Z,13.50
2019-05-25T01:13:14.388Z,13.40
2019-05-25T01:15:42.873Z,13.30
2019-05-25T01:18:11.530Z,13.40
2019-05-25T01:20:40.133Z,13.50
2019-05-25T01:23:08.623Z,13.50
2019-05-25T01:25:37.109Z,13.40
2019-05-25T01:28:05.589Z,13.40
2019-05-25T01:30:34.151Z,13.40
2019-05-25T01:33:02.641Z,13.30
2019-05-25T01:35:31.104Z,13.30
2019-05-25T01:38:00.413Z,13.40
2019-05-25T01:40:29.048Z,13.40
2019-05-25T01:42:57.589Z,13.30
2019-05-25T01:45:26.083Z,13.40
2019-05-25T01:47:54.582Z,13.30
2019-05-25T01:50:23.116Z,13.30
2019-05-25T01:52:51.590Z,13.30
2019-05-25T01:55:20.078Z,13.40
2019-05-25T01:57:48.566Z,13.30
2019-05-25T02:00:17.809Z,13.30
2019-05-25T02:02:46.290Z,13.20
2019-05-25T02:05:15.039Z,13.30
2019-05-25T02:07:43.494Z,13.10
2019-05-25T02:10:12.617Z,13.10
2019-05-25T02:12:41.152Z,13.10
2019-05-25T02:15:11.305Z,13.10
2019-05-25T02:17:39.805Z,13.10
2019-05-25T02:20:09.141Z,13.00
2019-05-25T02:22:37.657Z,13.00
2019-05-25T02:25:16.911Z,12.90
2019-05-25T02:27:37.639Z,12.90
2019-05-25T02:30:14.276Z,12.60
2019-05-25T02:32:42.802Z,12.60
2019-05-25T02:35:26.185Z,12.90
2019-05-25T02:37:55.216Z,12.90
2019-05-25T02:40:24.101Z,12.70
2019-05-25T02:42:52.618Z,12.90
2019-05-25T02:45:21.229Z,13.10
2019-05-25T02:47:50.265Z,13.10
2019-05-25T02:50:19.222Z,12.90
2019-05-25T02:52:47.701Z,12.80
2019-05-25T02:55:32.464Z,12.80
2019-05-25T02:57:46.822Z,12.90
2019-05-25T03:00:16.903Z,12.80
2019-05-25T03:02:45.663Z,12.90
2019-05-25T03:05:15.717Z,12.90
2019-05-25T03:07:46.976Z,12.90
2019-05-25T03:10:16.344Z,12.90
2019-05-25T03:12:44.949Z,12.90
2019-05-25T03:15:13.981Z,12.90
2019-05-25T03:17:42.527Z,12.80
2019-05-25T03:20:11.552Z,12.90
2019-05-25T03:22:40.116Z,12.80
2019-05-25T03:25:08.927Z,12.90
2019-05-25T03:27:37.413Z,12.80
2019-05-25T03:30:08.442Z,12.50
2019-05-25T03:32:37.060Z,12.60
2019-05-25T03:35:08.938Z,12.60
2019-05-25T03:37:37.517Z,12.60
2019-05-25T03:40:07.910Z,12.70
2019-05-25T03:42:36.439Z,12.70
2019-05-25T03:45:06.627Z,12.80
2019-05-25T03:47:35.120Z,12.70
2019-05-25T03:50:04.735Z,12.80
2019-05-25T03:52:33.302Z,12.80
2019-05-25T03:55:01.852Z,12.60
2019-05-25T03:57:30.323Z,12.70
2019-05-25T03:59:58.820Z,12.70
2019-05-25T04:02:27.293Z,12.80
2019-05-25T04:04:55.795Z,12.80
2019-05-25T04:07:24.322Z,12.80
2019-05-25T04:09:52.833Z,12.70
2019-05-25T04:12:21.364Z,12.70
2019-05-25T04:14:49.864Z,12.70
2019-05-25T04:17:18.453Z,12.60
2019-05-25T04:19:47.006Z,12.60
2019-05-25T04:22:15.473Z,12.60
2019-05-25T04:24:43.957Z,12.70
2019-05-25T04:27:12.419Z,12.70
2019-05-25T04:29:40.924Z,12.70
2019-05-25T04:32:09.481Z,12.70
2019-05-25T04:34:37.945Z,12.70
2019-05-25T04:37:06.433Z,12.60
2019-05-25T04:39:34.897Z,12.70
2019-05-25T04:42:03.433Z,12.80
2019-05-25T04:44:32.002Z,12.80
2019-05-25T04:47:00.477Z,12.80
2019-05-25T04:49:28.936Z,12.90
2019-05-25T04:51:57.436Z,12.70
2019-05-25T04:54:25.917Z,12.60
2019-05-25T04:56:54.388Z,12.70
2019-05-25T04:59:22.889Z,12.90
2019-05-25T05:01:51.366Z,12.80
2019-05-25T05:04:19.853Z,12.70
2019-05-25T05:06:48.363Z,12.80
2019-05-25T05:09:16.934Z,12.80
2019-05-25T05:11:45.421Z,12.80
2019-05-25T05:14:13.889Z,12.90
2019-05-25T05:16:42.387Z,13.10
2019-05-25T05:19:10.850Z,13.10
2019-05-25T05:21:39.332Z,13.00
2019-05-25T05:24:07.923Z,13.00
2019-05-25T05:26:36.416Z,13.30
2019-05-25T05:29:05.213Z,13.00
2019-05-25T05:31:33.696Z,13.10
2019-05-25T05:34:02.252Z,13.20
2019-05-25T05:36:31.305Z,13.60
2019-05-25T05:39:00.393Z,13.40
2019-05-25T05:41:31.397Z,13.40
2019-05-25T05:44:01.652Z,13.40
2019-05-25T05:46:32.664Z,13.30
2019-05-25T05:49:02.190Z,13.30
2019-05-25T05:51:34.071Z,13.30
2019-05-25T05:54:03.766Z,13.50
2019-05-25T05:56:32.227Z,13.30
2019-05-25T05:59:01.531Z,13.30
2019-05-25T06:01:30.283Z,13.50
2019-05-25T06:03:58.862Z,13.60
2019-05-25T06:06:27.402Z,13.80
2019-05-25T06:08:55.901Z,13.90
2019-05-25T06:11:24.379Z,13.90
2019-05-25T06:13:52.849Z,13.90
2019-05-25T06:16:21.428Z,13.90
2019-05-25T06:18:49.963Z,13.70
2019-05-25T06:21:18.470Z,14.00
2019-05-25T06:23:46.943Z,13.90
2019-05-25T06:26:15.424Z,13.90
2019-05-25T06:28:43.929Z,14.10
2019-05-25T06:31:12.408Z,13.70
2019-05-25T06:33:40.893Z,14.10
2019-05-25T06:36:09.468Z,14.20
2019-05-25T06:38:37.960Z,14.50
2019-05-25T06:41:08.546Z,14.60
2019-05-25T06:43:36.707Z,14.40
2019-05-25T06:46:05.539Z,14.40
2019-05-25T06:48:34.261Z,14.50
2019-05-25T06:51:02.863Z,14.50
2019-05-25T06:53:31.340Z,14.40
2019-05-25T06:55:59.909Z,14.50
2019-05-25T06:58:28.407Z,14.50
2019-05-25T07:00:56.957Z,14.60
2019-05-25T07:03:25.497Z,14.60
2019-05-25T07:05:53.990Z,14.70
2019-05-25T07:08:22.534Z,14.90
2019-05-25T07:10:51.055Z,14.80
2019-05-25T07:13:19.616Z,14.90
2019-05-25T07:15:48.080Z,14.90
2019-05-25T07:18:16.592Z,14.90
2019-05-25T07:20:45.139Z,15.10
2019-05-25T07:23:13.733Z,15.00
2019-05-25T07:25:42.228Z,15.40
2019-05-25T07:28:10.796Z,15.50
2019-05-25T07:30:39.290Z,15.10
2019-05-25T07:33:07.865Z,15.40
2019-05-25T07:35:36.341Z,15.40
2019-05-25T07:38:04.960Z,15.30
2019-05-25T07:40:33.442Z,15.10
2019-05-25T07:43:01.933Z,15.30
2019-05-25T07:45:30.581Z,15.30
2019-05-25T07:47:59.060Z,15.40
2019-05-25T07:50:27.599Z,15.40
2019-05-25T07:52:56.084Z,15.40
2019-05-25T07:55:24.599Z,15.30
2019-05-25T07:57:53.115Z,15.40
2019-05-25T08:00:22.264Z,15.20
2019-05-25T08:02:50.818Z,15.30
2019-05-25T08:05:19.356Z,15.40
2019-05-25T08:07:47.848Z,15.40
2019-05-25T08:10:16.658Z,15.20
2019-05-25T08:12:45.143Z,15.30
2019-05-25T08:15:13.881Z,15.40
2019-05-25T08:17:42.433Z,15.30
2019-05-25T08:20:11.891Z,15.50
2019-05-25T08:22:40.442Z,15.60
2019-05-25T08:25:09.618Z,15.50
2019-05-25T08:27:38.261Z,15.50
2019-05-25T08:30:08.178Z,15.30
2019-05-25T08:32:36.801Z,15.50
2019-05-25T08:35:07.270Z,15.20
2019-05-25T08:37:35.929Z,15.20
2019-05-25T08:40:06.722Z,15.20
2019-05-25T08:42:35.270Z,15.30
2019-05-25T08:45:05.686Z,15.40
2019-05-25T08:47:34.176Z,15.70
2019-05-25T08:50:02.732Z,15.80
2019-05-25T08:52:31.202Z,15.90
2019-05-25T08:54:59.681Z,15.90
2019-05-25T08:57:28.181Z,16.10
2019-05-25T08:59:56.742Z,15.90
2019-05-25T09:02:25.316Z,15.50
2019-05-25T09:04:53.807Z,15.60
2019-05-25T09:07:22.305Z,15.90
2019-05-25T09:09:50.804Z,15.80
2019-05-25T09:12:19.350Z,15.80
2019-05-25T09:14:47.816Z,15.90
2019-05-25T09:17:16.303Z,16.00
2019-05-25T09:19:44.790Z,16.00
2019-05-25T09:22:13.291Z,16.10
2019-05-25T09:24:41.884Z,16.10
2019-05-25T09:27:10.521Z,16.00
2019-05-25T09:29:39.011Z,15.90
2019-05-25T09:32:07.565Z,15.80
2019-05-25T09:34:36.132Z,15.80
2019-05-25T09:37:04.796Z,15.80
2019-05-25T09:39:33.270Z,16.10
2019-05-25T09:42:01.775Z,16.20
2019-05-25T09:44:30.283Z,15.80
2019-05-25T09:46:58.827Z,16.00
2019-05-25T09:49:27.393Z,16.10
2019-05-25T09:51:55.946Z,15.90
2019-05-25T09:54:24.504Z,15.90
2019-05-25T09:56:53.005Z,16.10
2019-05-25T09:59:21.510Z,16.40
2019-05-25T10:01:50.137Z,16.50
2019-05-25T10:04:18.701Z,16.60
2019-05-25T10:06:47.241Z,16.70
2019-05-25T10:09:15.929Z,17.00
2019-05-25T10:14:10.287Z,17.00
2019-05-25T10:16:38.842Z,17.60
2019-05-25T10:19:07.364Z,18.10
2019-05-25T10:21:35.970Z,18.30
2019-05-25T10:24:04.640Z,18.30
2019-05-25T10:26:33.216Z,18.30
2019-05-25T10:29:01.794Z,18.10
2019-05-25T10:31:30.283Z,17.90
2019-05-25T10:33:58.762Z,17.90
2019-05-25T10:36:27.263Z,18.10
2019-05-25T10:38:55.832Z,18.20
2019-05-25T10:41:24.386Z,18.50
2019-05-25T10:43:52.865Z,18.60
2019-05-25T10:46:21.537Z,18.30
2019-05-25T10:48:50.034Z,18.50
2019-05-25T10:51:18.634Z,18.60
2019-05-25T10:53:47.195Z,18.80
2019-05-25T10:56:15.753Z,18.90
2019-05-25T10:58:44.218Z,18.70
2019-05-25T11:01:12.699Z,18.80
2019-05-25T11:03:41.211Z,19.20
2019-05-25T11:06:09.855Z,19.30
2019-05-25T11:08:38.426Z,19.40
2019-05-25T11:11:06.893Z,19.40
2019-05-25T11:13:35.399Z,19.10
2019-05-25T11:16:03.891Z,19.30
2019-05-25T11:18:32.460Z,19.10
2019-05-25T11:21:01.003Z,18.30
2019-05-25T11:23:29.621Z,18.60
2019-05-25T11:25:58.167Z,19.40
2019-05-25T11:28:26.715Z,20.00
2019-05-25T11:30:55.197Z,20.60
2019-05-25T11:33:23.673Z,20.60
2019-05-25T11:35:52.174Z,20.60
2019-05-25T11:38:20.643Z,20.00
2019-05-25T11:40:49.215Z,19.90
2019-05-25T11:43:18.519Z,20.30
2019-05-25T11:45:46.985Z,20.50
2019-05-25T11:48:15.650Z,20.60
2019-05-25T11:50:44.211Z,20.50
2019-05-25T11:53:12.740Z,19.70
2019-05-25T11:55:41.280Z,20.20
2019-05-25T11:58:09.756Z,20.60
2019-05-25T12:00:38.237Z,20.80
2019-05-25T12:03:06.776Z,21.50
2019-05-25T12:05:35.244Z,21.40
2019-05-25T12:08:03.820Z,21.60
2019-05-25T12:10:32.384Z,21.80
2019-05-25T12:13:00.874Z,22.10
2019-05-25T12:15:29.379Z,22.00
2019-05-25T12:17:57.989Z,21.40
2019-05-25T12:20:26.570Z,20.80
2019-05-25T12:22:55.058Z,21.70
2019-05-25T12:25:23.665Z,21.90
2019-05-25T12:27:52.247Z,22.10
2019-05-25T12:30:21.236Z,21.60
2019-05-25T12:32:49.729Z,21.30
2019-05-25T12:35:18.866Z,21.10
2019-05-25T12:37:47.444Z,21.20
2019-05-25T12:40:16.202Z,21.00
2019-05-25T12:42:45.970Z,20.50
2019-05-25T12:45:15.270Z,20.80
2019-05-25T12:47:43.737Z,20.80
2019-05-25T12:50:13.740Z,21.40
2019-05-25T12:52:42.205Z,21.40
2019-05-25T12:55:10.776Z,21.50
2019-05-25T12:57:39.372Z,21.00
2019-05-25T13:00:15.491Z,20.30
2019-05-25T13:02:38.723Z,20.70
2019-05-25T13:05:07.606Z,21.00
2019-05-25T13:07:36.074Z,20.90
2019-05-25T13:10:08.000Z,21.00
2019-05-25T13:12:36.493Z,20.60
2019-05-25T13:15:06.778Z,20.70
2019-05-25T13:17:35.335Z,20.20
2019-05-25T13:20:07.646Z,20.30
2019-05-25T13:22:36.195Z,20.10
2019-05-25T13:25:06.624Z,20.30
2019-05-25T13:27:35.079Z,20.00
2019-05-25T13:30:05.224Z,19.80
2019-05-25T13:32:33.709Z,20.10
2019-05-25T13:35:02.285Z,20.10
2019-05-25T13:37:30.853Z,19.90
2019-05-25T13:39:59.416Z,19.80
2019-05-25T13:42:27.915Z,20.10
2019-05-25T13:44:56.493Z,20.20
2019-05-25T13:47:25.012Z,20.10
2019-05-25T13:49:53.623Z,20.00
2019-05-25T13:52:22.140Z,19.80
2019-05-25T13:54:50.728Z,19.80
2019-05-25T13:57:19.545Z,19.70
2019-05-25T13:59:48.040Z,19.80
2019-05-25T14:02:16.619Z,19.80
2019-05-25T14:04:45.138Z,19.80
2019-05-25T14:07:13.693Z,19.80
2019-05-25T14:09:42.192Z,19.60
2019-05-25T14:12:10.748Z,19.90
2019-05-25T14:14:39.297Z,20.30
2019-05-25T14:17:07.805Z,20.00
2019-05-25T14:19:36.370Z,19.90
2019-05-25T14:22:04.853Z,19.80
2019-05-25T14:24:33.367Z,20.00
2019-05-25T14:27:01.864Z,20.10
2019-05-25T14:29:30.416Z,20.20
2019-05-25T14:31:58.912Z,20.20
2019-05-25T14:34:27.397Z,19.90
2019-05-25T14:36:55.891Z,20.10
2019-05-25T14:39:24.371Z,20.30
2019-05-25T14:41:52.927Z,20.40
2019-05-25T14:44:21.517Z,20.50
2019-05-25T14:46:50.070Z,20.10
2019-05-25T14:49:18.566Z,20.20
2019-05-25T14:51:47.140Z,20.50
2019-05-25T14:54:15.624Z,20.20
2019-05-25T14:56:44.127Z,20.50
2019-05-25T14:59:12.646Z,20.70
2019-05-25T15:01:41.145Z,20.40
2019-05-25T15:04:09.647Z,20.10
2019-05-25T15:06:38.149Z,20.10
2019-05-25T15:09:26.002Z,20.10
2019-05-25T15:11:54.494Z,20.00
2019-05-25T15:14:22.976Z,20.20
2019-05-25T15:16:51.609Z,20.10
2019-05-25T15:19:20.146Z,20.20
2019-05-25T15:21:48.777Z,20.40
2019-05-25T15:24:17.462Z,20.70
2019-05-25T15:26:46.021Z,20.80
2019-05-25T15:29:14.593Z,20.50
2019-05-25T15:31:43.142Z,19.80
2019-05-25T15:34:11.712Z,20.30
2019-05-25T15:36:40.187Z,20.40
2019-05-25T15:39:08.789Z,20.00
2019-05-25T15:41:37.338Z,20.30
2019-05-25T15:44:05.902Z,19.90
2019-05-25T15:46:34.400Z,19.80
2019-05-25T15:49:02.989Z,20.00
2019-05-25T15:51:31.563Z,19.80
2019-05-25T15:54:00.156Z,20.00
2019-05-25T15:56:28.728Z,20.30
2019-05-25T15:58:57.246Z,20.40
2019-05-25T16:01:25.914Z,20.40
2019-05-25T16:03:54.469Z,20.60
2019-05-25T16:06:23.965Z,20.40
2019-05-25T16:08:52.587Z,20.30
2019-05-25T16:11:21.120Z,20.30
2019-05-25T16:13:49.697Z,20.10
2019-05-25T16:16:18.226Z,19.90
2019-05-25T16:18:46.780Z,19.60
2019-05-25T16:21:15.263Z,19.80
2019-05-25T16:23:43.752Z,19.80
2019-05-25T16:26:12.327Z,19.80
2019-05-25T16:28:40.857Z,20.00
2019-05-25T16:31:09.403Z,19.90
2019-05-25T16:33:37.893Z,19.80
2019-05-25T16:36:06.426Z,19.80
2019-05-25T16:38:34.885Z,19.90
2019-05-25T16:41:03.464Z,19.90
2019-05-25T16:43:32.031Z,20.10
2019-05-25T16:46:00.520Z,20.20
2019-05-25T16:48:29.078Z,19.90
2019-05-25T16:50:57.674Z,19.90
2019-05-25T16:53:26.233Z,19.60
2019-05-25T16:55:55.067Z,19.60
2019-05-25T16:58:23.644Z,19.80
2019-05-25T17:00:52.154Z,19.90
2019-05-25T17:03:28.266Z,19.90
2019-05-25T17:05:50.836Z,19.80
2019-05-25T17:08:19.442Z,19.70
2019-05-25T17:10:48.012Z,19.60
2019-05-25T17:13:16.582Z,19.70
2019-05-25T17:15:45.128Z,19.60
2019-05-25T17:18:13.601Z,19.50
2019-05-25T17:20:42.254Z,19.40
2019-05-25T17:23:10.782Z,19.50
2019-05-25T17:25:39.319Z,19.60
2019-05-25T17:28:07.973Z,19.80
2019-05-25T17:30:39.493Z,19.40
2019-05-25T17:33:08.267Z,19.30
2019-05-25T17:35:36.809Z,19.30
2019-05-25T17:38:05.591Z,19.10
2019-05-25T17:40:34.231Z,19.10
2019-05-25T17:43:02.799Z,19.00
2019-05-25T17:45:31.278Z,19.10
2019-05-25T17:47:59.797Z,19.30
2019-05-25T17:50:28.275Z,19.30
2019-05-25T17:52:56.787Z,19.30
2019-05-25T17:55:25.264Z,19.20
2019-05-25T17:57:53.804Z,19.40
2019-05-25T18:00:39.995Z,19.40
2019-05-25T18:03:08.857Z,19.20
2019-05-25T18:05:37.353Z,19.30
2019-05-25T18:08:06.086Z,19.40
2019-05-25T18:10:51.040Z,19.30
2019-05-25T18:13:05.581Z,19.20
2019-05-25T18:15:34.243Z,19.20
2019-05-25T18:18:02.889Z,19.30
2019-05-25T18:20:31.378Z,19.10
2019-05-25T18:22:59.851Z,19.10
2019-05-25T18:25:28.515Z,19.20
2019-05-25T18:27:57.115Z,19.20
2019-05-25T18:30:26.305Z,18.90
2019-05-25T18:32:55.065Z,18.80
2019-05-25T18:35:23.619Z,18.70
2019-05-25T18:37:52.189Z,18.90
2019-05-25T18:40:21.774Z,19.00
2019-05-25T18:42:50.338Z,18.90
2019-05-25T18:45:19.015Z,18.80
2019-05-25T18:47:47.627Z,18.70
2019-05-25T18:50:16.658Z,18.70
2019-05-25T18:52:45.243Z,18.90
2019-05-25T18:55:14.450Z,18.70
2019-05-25T18:57:42.931Z,18.80
2019-05-25T19:00:12.217Z,18.60
2019-05-25T19:02:40.745Z,18.90
2019-05-25T19:05:09.936Z,18.90
2019-05-25T19:07:38.514Z,18.70
2019-05-25T19:10:10.784Z,18.50
2019-05-25T19:12:39.359Z,18.80
2019-05-25T19:15:08.964Z,18.90
2019-05-25T19:17:37.528Z,18.90
2019-05-25T19:20:07.273Z,18.90
2019-05-25T19:22:35.838Z,18.90
2019-05-25T19:25:06.514Z,18.80
2019-05-25T19:27:35.080Z,18.90
2019-05-25T19:30:05.458Z,18.80
2019-05-25T19:32:34.053Z,18.80
2019-05-25T19:35:02.635Z,18.70
2019-05-25T19:37:31.208Z,18.60
2019-05-25T19:40:00.273Z,18.60
2019-05-25T19:42:28.775Z,18.40
2019-05-25T19:44:57.351Z,18.20
2019-05-25T19:47:25.839Z,18.10
2019-05-25T19:49:54.779Z,18.10
2019-05-25T19:52:23.295Z,18.20
2019-05-25T19:54:51.875Z,18.10
2019-05-25T19:57:20.423Z,18.30
2019-05-25T19:59:49.001Z,18.30
2019-05-25T20:02:17.506Z,18.10
2019-05-25T20:04:46.022Z,18.10
2019-05-25T20:07:14.597Z,18.10
2019-05-25T20:09:43.170Z,18.20
2019-05-25T20:12:11.799Z,18.10
2019-05-25T20:14:40.341Z,18.20
2019-05-25T20:17:08.927Z,18.10
2019-05-25T20:19:37.397Z,17.90
2019-05-25T20:22:09.103Z,17.80
2019-05-25T20:24:36.225Z,17.90
2019-05-25T20:27:04.877Z,18.00
2019-05-25T20:29:33.424Z,17.80
2019-05-25T20:32:01.914Z,17.80
2019-05-25T20:34:30.490Z,17.70
2019-05-25T20:36:59.020Z,17.70
2019-05-25T20:39:27.551Z,17.60
2019-05-25T20:41:56.053Z,17.60
2019-05-25T20:44:27.399Z,17.60
2019-05-25T20:46:55.901Z,17.60
2019-05-25T20:49:24.409Z,17.50
2019-05-25T20:51:52.920Z,17.30
2019-05-25T20:54:21.430Z,17.20
2019-05-25T20:56:50.053Z,17.20
2019-05-25T20:59:18.638Z,17.00
2019-05-25T21:01:47.223Z,17.00
2019-05-25T21:04:15.759Z,16.90
2019-05-25T21:06:44.249Z,16.90
2019-05-25T21:09:12.744Z,17.00
2019-05-25T21:11:41.237Z,17.10
2019-05-25T21:14:09.801Z,16.90
2019-05-25T21:16:38.373Z,16.90
2019-05-25T21:19:06.865Z,16.80
2019-05-25T21:21:35.449Z,16.80
2019-05-25T21:24:04.081Z,17.00
2019-05-25T21:26:32.558Z,17.00
2019-05-25T21:29:01.048Z,17.00
2019-05-25T21:31:29.618Z,17.00
2019-05-25T21:33:58.170Z,17.00
2019-05-25T21:36:26.716Z,17.00
2019-05-25T21:38:55.200Z,17.20
2019-05-25T21:41:23.776Z,17.30
2019-05-25T21:43:52.265Z,17.00
2019-05-25T21:46:21.646Z,16.90
2019-05-25T21:48:50.198Z,16.70
2019-05-25T21:51:21.077Z,16.80
2019-05-25T21:53:49.550Z,16.80
2019-05-25T21:56:18.029Z,17.00
2019-05-25T21:58:46.672Z,17.00
2019-05-25T22:01:15.436Z,17.00
2019-05-25T22:03:43.990Z,16.90
2019-05-25T22:06:23.905Z,16.60
2019-05-25T22:08:42.895Z,16.70
2019-05-25T22:11:11.483Z,16.70
2019-05-25T22:13:39.964Z,16.70
2019-05-25T22:16:08.445Z,16.50
2019-05-25T22:18:37.257Z,16.40
2019-05-25T22:21:05.809Z,16.30
2019-05-25T22:23:34.287Z,15.80
2019-05-25T22:26:02.876Z,15.50
2019-05-25T22:28:44.367Z,15.30
2019-05-25T22:31:01.625Z,15.30
2019-05-25T22:33:30.123Z,15.20
2019-05-25T22:35:58.605Z,15.20
2019-05-25T22:38:27.116Z,15.40
2019-05-25T22:40:55.643Z,15.40
2019-05-25T22:43:24.223Z,15.50
2019-05-25T22:45:52.820Z,15.50
2019-05-25T22:48:21.314Z,15.60
2019-05-25T22:50:49.798Z,15.50
2019-05-25T22:53:18.279Z,15.50
2019-05-25T22:55:46.808Z,15.50
2019-05-25T22:58:15.349Z,15.40
2019-05-25T23:00:43.901Z,15.30
2019-05-25T23:03:12.376Z,15.40
2019-05-25T23:05:40.868Z,15.20
2019-05-25T23:08:09.350Z,15.20
2019-05-25T23:10:37.933Z,14.90
2019-05-25T23:13:06.402Z,14.90
2019-05-25T23:15:35.040Z,14.80
2019-05-25T23:18:03.503Z,14.70
2019-05-25T23:20:32.013Z,14.50
2019-05-25T23:23:00.499Z,14.70
2019-05-25T23:25:29.073Z,14.40
2019-05-25T23:27:57.536Z,14.40
2019-05-25T23:30:26.032Z,14.40
2019-05-25T23:32:54.876Z,14.40
2019-05-25T23:35:23.345Z,14.30
2019-05-25T23:37:51.853Z,14.20
2019-05-25T23:40:20.412Z,14.20
2019-05-25T23:42:48.945Z,14.40
2019-05-25T23:45:17.764Z,14.20
2019-05-25T23:47:46.265Z,14.40
2019-05-25T23:50:15.169Z,14.50
2019-05-25T23:52:43.704Z,14.50
2019-05-25T23:55:12.315Z,14.30
2019-05-25T23:57:40.819Z,14.20
